sensor_id;sensor_type;location;lat;lon;timestamp;P1;durP1;ratioP1;P2;durP2;ratioP2
4835;SDS011;66719;51.226;6.902;2023-08-20T00:01:16;14.50;;;8.23;;
4835;SDS011;66719;51.226;6.902;2023-08-20T00:03:50;17.83;;;8.67;;
4835;SDS011;66719;51.226;6.902;2023-08-20T00:06:18;14.37;;;7.63;;
4835;SDS011;66719;51.226;6.902;2023-08-20T00:08:44;18.80;;;8.43;;
4835;SDS011;66719;51.226;6.902;2023-08-20T00:11:12;18.80;;;7.73;;
4835;SDS011;66719;51.226;6.902;2023-08-20T00:13:39;17.97;;;8.30;;
4835;SDS011;66719;51.226;6.902;2023-08-20T00:16:07;17.47;;;8.70;;
4835;SDS011;66719;51.226;6.902;2023-08-20T00:18:35;17.17;;;8.73;;
4835;SDS011;66719;51.226;6.902;2023-08-20T00:21:04;20.00;;;8.50;;
4835;SDS011;66719;51.226;6.902;2023-08-20T00:23:32;19.53;;;8.87;;
4835;SDS011;66719;51.226;6.902;2023-08-20T00:25:59;20.87;;;9.20;;
4835;SDS011;66719;51.226;6.902;2023-08-20T00:28:26;18.20;;;8.80;;
4835;SDS011;66719;51.226;6.902;2023-08-20T00:30:52;17.40;;;8.53;;
4835;SDS011;66719;51.226;6.902;2023-08-20T00:33:19;21.00;;;9.47;;
4835;SDS011;66719;51.226;6.902;2023-08-20T00:35:45;15.50;;;8.00;;
4835;SDS011;66719;51.226;6.902;2023-08-20T00:38:12;18.83;;;8.50;;
4835;SDS011;66719;51.226;6.902;2023-08-20T00:40:38;19.03;;;9.07;;
4835;SDS011;66719;51.226;6.902;2023-08-20T00:43:05;20.27;;;8.63;;
4835;SDS011;66719;51.226;6.902;2023-08-20T00:45:32;20.03;;;9.17;;
4835;SDS011;66719;51.226;6.902;2023-08-20T00:48:00;20.30;;;9.67;;
4835;SDS011;66719;51.226;6.902;2023-08-20T00:50:26;16.47;;;8.70;;
4835;SDS011;66719;51.226;6.902;2023-08-20T00:52:53;17.43;;;9.30;;
4835;SDS011;66719;51.226;6.902;2023-08-20T00:55:20;18.57;;;8.90;;
4835;SDS011;66719;51.226;6.902;2023-08-20T00:57:47;18.30;;;9.40;;
4835;SDS011;66719;51.226;6.902;2023-08-20T01:00:13;17.50;;;9.30;;
4835;SDS011;66719;51.226;6.902;2023-08-20T01:02:43;20.53;;;8.70;;
4835;SDS011;66719;51.226;6.902;2023-08-20T01:05:13;18.20;;;9.50;;
4835;SDS011;66719;51.226;6.902;2023-08-20T01:13:55;18.57;;;9.37;;
4835;SDS011;66719;51.226;6.902;2023-08-20T01:16:24;20.67;;;9.77;;
4835;SDS011;66719;51.226;6.902;2023-08-20T01:18:50;18.20;;;10.40;;
4835;SDS011;66719;51.226;6.902;2023-08-20T01:21:23;21.50;;;11.27;;
4835;SDS011;66719;51.226;6.902;2023-08-20T01:27:28;19.03;;;10.10;;
4835;SDS011;66719;51.226;6.902;2023-08-20T01:29:57;19.90;;;11.73;;
4835;SDS011;66719;51.226;6.902;2023-08-20T01:32:25;20.63;;;11.80;;
4835;SDS011;66719;51.226;6.902;2023-08-20T01:34:52;17.50;;;11.60;;
4835;SDS011;66719;51.226;6.902;2023-08-20T01:37:20;23.93;;;12.90;;
4835;SDS011;66719;51.226;6.902;2023-08-20T01:39:47;22.27;;;12.77;;
4835;SDS011;66719;51.226;6.902;2023-08-20T01:42:13;25.37;;;13.67;;
4835;SDS011;66719;51.226;6.902;2023-08-20T01:44:40;18.40;;;11.73;;
4835;SDS011;66719;51.226;6.902;2023-08-20T01:47:06;19.93;;;11.23;;
4835;SDS011;66719;51.226;6.902;2023-08-20T01:49:33;18.20;;;10.77;;
4835;SDS011;66719;51.226;6.902;2023-08-20T01:51:59;19.77;;;10.70;;
4835;SDS011;66719;51.226;6.902;2023-08-20T01:54:26;22.63;;;11.90;;
4835;SDS011;66719;51.226;6.902;2023-08-20T01:56:52;22.83;;;12.67;;
4835;SDS011;66719;51.226;6.902;2023-08-20T01:59:21;17.50;;;10.73;;
4835;SDS011;66719;51.226;6.902;2023-08-20T02:01:48;19.60;;;9.50;;
4835;SDS011;66719;51.226;6.902;2023-08-20T02:04:15;21.83;;;10.47;;
4835;SDS011;66719;51.226;6.902;2023-08-20T02:06:41;19.63;;;11.20;;
4835;SDS011;66719;51.226;6.902;2023-08-20T02:09:08;24.07;;;11.20;;
4835;SDS011;66719;51.226;6.902;2023-08-20T02:11:34;20.07;;;11.00;;
4835;SDS011;66719;51.226;6.902;2023-08-20T02:14:02;18.80;;;10.43;;
4835;SDS011;66719;51.226;6.902;2023-08-20T02:16:28;26.77;;;12.30;;
4835;SDS011;66719;51.226;6.902;2023-08-20T02:18:55;26.67;;;13.47;;
4835;SDS011;66719;51.226;6.902;2023-08-20T02:21:22;21.23;;;12.30;;
4835;SDS011;66719;51.226;6.902;2023-08-20T02:23:48;23.27;;;12.70;;
4835;SDS011;66719;51.226;6.902;2023-08-20T02:26:15;23.80;;;12.90;;
4835;SDS011;66719;51.226;6.902;2023-08-20T02:28:41;19.90;;;12.07;;
4835;SDS011;66719;51.226;6.902;2023-08-20T02:31:08;21.17;;;12.07;;
4835;SDS011;66719;51.226;6.902;2023-08-20T02:33:35;32.27;;;12.30;;
4835;SDS011;66719;51.226;6.902;2023-08-20T02:36:02;21.40;;;10.43;;
4835;SDS011;66719;51.226;6.902;2023-08-20T02:38:29;20.73;;;10.83;;
4835;SDS011;66719;51.226;6.902;2023-08-20T02:40:56;18.40;;;10.93;;
4835;SDS011;66719;51.226;6.902;2023-08-20T02:43:23;18.93;;;10.43;;
4835;SDS011;66719;51.226;6.902;2023-08-20T02:45:49;25.20;;;10.90;;
4835;SDS011;66719;51.226;6.902;2023-08-20T02:48:17;19.43;;;10.80;;
4835;SDS011;66719;51.226;6.902;2023-08-20T02:50:44;19.80;;;11.13;;
4835;SDS011;66719;51.226;6.902;2023-08-20T02:53:11;19.13;;;10.60;;
4835;SDS011;66719;51.226;6.902;2023-08-20T02:55:37;23.43;;;10.77;;
4835;SDS011;66719;51.226;6.902;2023-08-20T02:58:04;16.57;;;10.37;;
4835;SDS011;66719;51.226;6.902;2023-08-20T03:00:34;18.07;;;10.73;;
4835;SDS011;66719;51.226;6.902;2023-08-20T03:03:00;24.50;;;11.63;;
4835;SDS011;66719;51.226;6.902;2023-08-20T03:05:30;21.60;;;10.50;;
4835;SDS011;66719;51.226;6.902;2023-08-20T03:07:57;24.60;;;11.37;;
4835;SDS011;66719;51.226;6.902;2023-08-20T03:10:24;19.83;;;10.97;;
4835;SDS011;66719;51.226;6.902;2023-08-20T03:12:50;23.20;;;10.80;;
4835;SDS011;66719;51.226;6.902;2023-08-20T03:15:17;20.80;;;11.40;;
4835;SDS011;66719;51.226;6.902;2023-08-20T03:17:43;19.93;;;10.83;;
4835;SDS011;66719;51.226;6.902;2023-08-20T03:20:10;24.73;;;12.70;;
4835;SDS011;66719;51.226;6.902;2023-08-20T03:22:37;22.33;;;12.80;;
4835;SDS011;66719;51.226;6.902;2023-08-20T03:25:04;25.20;;;13.00;;
4835;SDS011;66719;51.226;6.902;2023-08-20T03:27:32;20.73;;;12.83;;
4835;SDS011;66719;51.226;6.902;2023-08-20T03:29:59;22.70;;;12.90;;
4835;SDS011;66719;51.226;6.902;2023-08-20T03:32:25;25.37;;;13.10;;
4835;SDS011;66719;51.226;6.902;2023-08-20T03:34:52;22.67;;;13.10;;
4835;SDS011;66719;51.226;6.902;2023-08-20T03:37:20;21.20;;;11.73;;
4835;SDS011;66719;51.226;6.902;2023-08-20T03:39:47;23.23;;;11.50;;
4835;SDS011;66719;51.226;6.902;2023-08-20T03:42:14;26.80;;;13.57;;
4835;SDS011;66719;51.226;6.902;2023-08-20T03:44:41;21.73;;;13.37;;
4835;SDS011;66719;51.226;6.902;2023-08-20T03:47:07;21.70;;;12.90;;
4835;SDS011;66719;51.226;6.902;2023-08-20T03:49:35;20.23;;;11.30;;
4835;SDS011;66719;51.226;6.902;2023-08-20T03:52:02;24.17;;;12.43;;
4835;SDS011;66719;51.226;6.902;2023-08-20T03:54:29;22.03;;;10.43;;
4835;SDS011;66719;51.226;6.902;2023-08-20T03:56:56;19.30;;;12.07;;
4835;SDS011;66719;51.226;6.902;2023-08-20T03:59:22;28.80;;;12.70;;
4835;SDS011;66719;51.226;6.902;2023-08-20T04:01:49;19.80;;;11.00;;
4835;SDS011;66719;51.226;6.902;2023-08-20T04:04:16;21.37;;;11.93;;
4835;SDS011;66719;51.226;6.902;2023-08-20T04:06:42;19.60;;;11.47;;
4835;SDS011;66719;51.226;6.902;2023-08-20T04:09:09;25.17;;;12.27;;
4835;SDS011;66719;51.226;6.902;2023-08-20T04:11:35;19.20;;;10.80;;
4835;SDS011;66719;51.226;6.902;2023-08-20T04:14:02;21.00;;;12.33;;
4835;SDS011;66719;51.226;6.902;2023-08-20T04:16:29;25.47;;;13.10;;
4835;SDS011;66719;51.226;6.902;2023-08-20T04:18:56;21.33;;;12.83;;
4835;SDS011;66719;51.226;6.902;2023-08-20T04:21:22;24.10;;;13.20;;
4835;SDS011;66719;51.226;6.902;2023-08-20T04:23:49;28.03;;;14.53;;
4835;SDS011;66719;51.226;6.902;2023-08-20T04:26:15;30.63;;;15.07;;
4835;SDS011;66719;51.226;6.902;2023-08-20T04:28:42;21.13;;;12.40;;
4835;SDS011;66719;51.226;6.902;2023-08-20T04:31:08;26.50;;;12.43;;
4835;SDS011;66719;51.226;6.902;2023-08-20T04:33:35;24.73;;;13.10;;
4835;SDS011;66719;51.226;6.902;2023-08-20T04:36:01;21.43;;;12.30;;
4835;SDS011;66719;51.226;6.902;2023-08-20T04:38:28;21.80;;;12.37;;
4835;SDS011;66719;51.226;6.902;2023-08-20T04:40:54;19.93;;;11.83;;
4835;SDS011;66719;51.226;6.902;2023-08-20T04:43:21;22.73;;;13.20;;
4835;SDS011;66719;51.226;6.902;2023-08-20T04:45:47;23.00;;;12.87;;
4835;SDS011;66719;51.226;6.902;2023-08-20T04:48:15;19.93;;;11.87;;
4835;SDS011;66719;51.226;6.902;2023-08-20T04:50:42;20.33;;;12.67;;
4835;SDS011;66719;51.226;6.902;2023-08-20T04:53:08;25.20;;;10.87;;
4835;SDS011;66719;51.226;6.902;2023-08-20T04:55:35;18.53;;;11.47;;
4835;SDS011;66719;51.226;6.902;2023-08-20T04:58:01;18.37;;;10.70;;
4835;SDS011;66719;51.226;6.902;2023-08-20T05:00:28;21.83;;;12.47;;
4835;SDS011;66719;51.226;6.902;2023-08-20T05:02:55;22.33;;;12.37;;
4835;SDS011;66719;51.226;6.902;2023-08-20T05:05:22;21.73;;;12.00;;
4835;SDS011;66719;51.226;6.902;2023-08-20T05:07:48;20.13;;;11.70;;
4835;SDS011;66719;51.226;6.902;2023-08-20T05:10:15;20.63;;;12.07;;
4835;SDS011;66719;51.226;6.902;2023-08-20T05:12:42;20.60;;;11.83;;
4835;SDS011;66719;51.226;6.902;2023-08-20T05:15:08;20.87;;;10.53;;
4835;SDS011;66719;51.226;6.902;2023-08-20T05:17:35;25.13;;;10.47;;
4835;SDS011;66719;51.226;6.902;2023-08-20T05:20:02;20.63;;;10.53;;
4835;SDS011;66719;51.226;6.902;2023-08-20T05:22:29;24.83;;;10.53;;
4835;SDS011;66719;51.226;6.902;2023-08-20T05:24:56;17.70;;;10.30;;
4835;SDS011;66719;51.226;6.902;2023-08-20T05:27:22;17.80;;;10.50;;
4835;SDS011;66719;51.226;6.902;2023-08-20T05:29:49;20.93;;;11.40;;
4835;SDS011;66719;51.226;6.902;2023-08-20T05:32:15;19.93;;;10.70;;
4835;SDS011;66719;51.226;6.902;2023-08-20T05:34:42;23.00;;;12.30;;
4835;SDS011;66719;51.226;6.902;2023-08-20T05:37:09;17.60;;;10.30;;
4835;SDS011;66719;51.226;6.902;2023-08-20T05:39:36;21.87;;;10.57;;
4835;SDS011;66719;51.226;6.902;2023-08-20T05:42:04;22.63;;;11.00;;
4835;SDS011;66719;51.226;6.902;2023-08-20T05:44:31;20.47;;;10.77;;
4835;SDS011;66719;51.226;6.902;2023-08-20T05:46:58;19.87;;;10.40;;
4835;SDS011;66719;51.226;6.902;2023-08-20T05:49:25;21.83;;;12.30;;
4835;SDS011;66719;51.226;6.902;2023-08-20T05:51:54;17.90;;;11.40;;
4835;SDS011;66719;51.226;6.902;2023-08-20T05:54:21;20.23;;;11.13;;
4835;SDS011;66719;51.226;6.902;2023-08-20T05:56:47;26.10;;;12.43;;
4835;SDS011;66719;51.226;6.902;2023-08-20T05:59:14;23.07;;;12.67;;
4835;SDS011;66719;51.226;6.902;2023-08-20T06:01:40;18.13;;;11.33;;
4835;SDS011;66719;51.226;6.902;2023-08-20T06:04:07;26.00;;;12.13;;
4835;SDS011;66719;51.226;6.902;2023-08-20T06:06:34;19.70;;;12.10;;
4835;SDS011;66719;51.226;6.902;2023-08-20T06:09:00;20.27;;;11.27;;
4835;SDS011;66719;51.226;6.902;2023-08-20T06:11:35;24.23;;;12.67;;
4835;SDS011;66719;51.226;6.902;2023-08-20T06:14:01;23.50;;;12.27;;
4835;SDS011;66719;51.226;6.902;2023-08-20T06:16:29;22.10;;;12.27;;
4835;SDS011;66719;51.226;6.902;2023-08-20T06:18:55;19.93;;;12.10;;
4835;SDS011;66719;51.226;6.902;2023-08-20T06:21:23;23.23;;;14.40;;
4835;SDS011;66719;51.226;6.902;2023-08-20T06:23:49;26.60;;;14.23;;
4835;SDS011;66719;51.226;6.902;2023-08-20T06:26:16;23.30;;;13.87;;
4835;SDS011;66719;51.226;6.902;2023-08-20T06:28:42;23.00;;;13.63;;
4835;SDS011;66719;51.226;6.902;2023-08-20T06:31:09;26.97;;;13.10;;
4835;SDS011;66719;51.226;6.902;2023-08-20T06:33:35;26.60;;;14.80;;
4835;SDS011;66719;51.226;6.902;2023-08-20T06:36:02;22.10;;;12.93;;
4835;SDS011;66719;51.226;6.902;2023-08-20T06:38:28;21.87;;;12.90;;
4835;SDS011;66719;51.226;6.902;2023-08-20T06:40:55;24.10;;;14.80;;
4835;SDS011;66719;51.226;6.902;2023-08-20T06:43:22;26.13;;;14.67;;
4835;SDS011;66719;51.226;6.902;2023-08-20T06:45:48;25.47;;;14.37;;
4835;SDS011;66719;51.226;6.902;2023-08-20T06:48:15;22.83;;;13.87;;
4835;SDS011;66719;51.226;6.902;2023-08-20T06:50:42;26.63;;;13.83;;
4835;SDS011;66719;51.226;6.902;2023-08-20T06:53:09;23.37;;;12.50;;
4835;SDS011;66719;51.226;6.902;2023-08-20T06:55:35;20.70;;;11.90;;
4835;SDS011;66719;51.226;6.902;2023-08-20T06:58:02;20.40;;;12.53;;
4835;SDS011;66719;51.226;6.902;2023-08-20T07:00:29;21.57;;;11.80;;
4835;SDS011;66719;51.226;6.902;2023-08-20T07:02:55;19.90;;;11.47;;
4835;SDS011;66719;51.226;6.902;2023-08-20T07:05:22;20.73;;;11.20;;
4835;SDS011;66719;51.226;6.902;2023-08-20T07:07:48;21.57;;;12.20;;
4835;SDS011;66719;51.226;6.902;2023-08-20T07:10:15;22.27;;;12.00;;
4835;SDS011;66719;51.226;6.902;2023-08-20T07:12:41;18.17;;;11.83;;
4835;SDS011;66719;51.226;6.902;2023-08-20T07:15:08;20.03;;;12.30;;
4835;SDS011;66719;51.226;6.902;2023-08-20T07:17:35;23.17;;;12.80;;
4835;SDS011;66719;51.226;6.902;2023-08-20T07:20:02;19.60;;;11.63;;
4835;SDS011;66719;51.226;6.902;2023-08-20T07:22:29;23.40;;;12.33;;
4835;SDS011;66719;51.226;6.902;2023-08-20T07:24:56;21.20;;;13.20;;
4835;SDS011;66719;51.226;6.902;2023-08-20T07:27:22;21.70;;;12.50;;
4835;SDS011;66719;51.226;6.902;2023-08-20T07:29:49;25.20;;;13.97;;
4835;SDS011;66719;51.226;6.902;2023-08-20T07:32:15;21.50;;;13.77;;
4835;SDS011;66719;51.226;6.902;2023-08-20T07:34:42;20.40;;;12.53;;
4835;SDS011;66719;51.226;6.902;2023-08-20T07:37:09;27.27;;;15.00;;
4835;SDS011;66719;51.226;6.902;2023-08-20T07:39:35;21.93;;;13.80;;
4835;SDS011;66719;51.226;6.902;2023-08-20T07:42:02;22.60;;;12.90;;
4835;SDS011;66719;51.226;6.902;2023-08-20T07:44:29;25.43;;;14.37;;
4835;SDS011;66719;51.226;6.902;2023-08-20T07:46:56;25.43;;;14.70;;
4835;SDS011;66719;51.226;6.902;2023-08-20T07:49:22;21.17;;;12.50;;
4835;SDS011;66719;51.226;6.902;2023-08-20T07:51:49;22.63;;;12.40;;
4835;SDS011;66719;51.226;6.902;2023-08-20T07:54:18;21.70;;;12.43;;
4835;SDS011;66719;51.226;6.902;2023-08-20T07:56:45;19.00;;;12.20;;
4835;SDS011;66719;51.226;6.902;2023-08-20T07:59:11;19.30;;;11.10;;
4835;SDS011;66719;51.226;6.902;2023-08-20T08:01:38;21.70;;;12.13;;
4835;SDS011;66719;51.226;6.902;2023-08-20T08:04:04;21.60;;;12.20;;
4835;SDS011;66719;51.226;6.902;2023-08-20T08:06:31;21.20;;;12.60;;
4835;SDS011;66719;51.226;6.902;2023-08-20T08:09:14;17.57;;;11.27;;
4835;SDS011;66719;51.226;6.902;2023-08-20T08:11:44;20.20;;;11.70;;
4835;SDS011;66719;51.226;6.902;2023-08-20T08:14:10;20.43;;;11.97;;
4835;SDS011;66719;51.226;6.902;2023-08-20T08:16:38;23.63;;;12.77;;
4835;SDS011;66719;51.226;6.902;2023-08-20T08:19:04;21.40;;;12.20;;
4835;SDS011;66719;51.226;6.902;2023-08-20T08:21:31;22.17;;;11.20;;
4835;SDS011;66719;51.226;6.902;2023-08-20T08:23:58;22.07;;;12.03;;
4835;SDS011;66719;51.226;6.902;2023-08-20T08:26:24;21.17;;;12.50;;
4835;SDS011;66719;51.226;6.902;2023-08-20T08:28:51;24.93;;;12.57;;
4835;SDS011;66719;51.226;6.902;2023-08-20T08:31:17;21.07;;;11.43;;
4835;SDS011;66719;51.226;6.902;2023-08-20T08:33:44;19.53;;;10.80;;
4835;SDS011;66719;51.226;6.902;2023-08-20T08:36:10;22.20;;;12.70;;
4835;SDS011;66719;51.226;6.902;2023-08-20T08:38:37;20.90;;;11.50;;
4835;SDS011;66719;51.226;6.902;2023-08-20T08:41:04;15.00;;;8.90;;
4835;SDS011;66719;51.226;6.902;2023-08-20T08:43:37;15.50;;;7.83;;
4835;SDS011;66719;51.226;6.902;2023-08-20T08:46:09;15.63;;;8.50;;
4835;SDS011;66719;51.226;6.902;2023-08-20T08:48:42;15.70;;;9.20;;
4835;SDS011;66719;51.226;6.902;2023-08-20T08:51:10;16.90;;;8.27;;
4835;SDS011;66719;51.226;6.902;2023-08-20T08:53:38;23.20;;;11.67;;
4835;SDS011;66719;51.226;6.902;2023-08-20T08:56:06;14.20;;;8.60;;
4835;SDS011;66719;51.226;6.902;2023-08-20T08:58:33;13.10;;;7.60;;
4835;SDS011;66719;51.226;6.902;2023-08-20T09:01:00;16.00;;;7.40;;
4835;SDS011;66719;51.226;6.902;2023-08-20T09:03:27;13.10;;;6.83;;
4835;SDS011;66719;51.226;6.902;2023-08-20T09:06:00;15.03;;;6.60;;
4835;SDS011;66719;51.226;6.902;2023-08-20T09:08:30;15.60;;;7.13;;
4835;SDS011;66719;51.226;6.902;2023-08-20T09:10:59;13.60;;;7.30;;
4835;SDS011;66719;51.226;6.902;2023-08-20T09:13:39;13.27;;;6.80;;
4835;SDS011;66719;51.226;6.902;2023-08-20T09:16:09;12.37;;;6.50;;
4835;SDS011;66719;51.226;6.902;2023-08-20T09:18:46;13.70;;;5.90;;
4835;SDS011;66719;51.226;6.902;2023-08-20T09:21:13;16.57;;;6.13;;
4835;SDS011;66719;51.226;6.902;2023-08-20T09:23:40;13.73;;;6.07;;
4835;SDS011;66719;51.226;6.902;2023-08-20T09:26:07;14.77;;;5.00;;
4835;SDS011;66719;51.226;6.902;2023-08-20T09:28:43;14.93;;;5.20;;
4835;SDS011;66719;51.226;6.902;2023-08-20T09:31:11;11.23;;;5.20;;
4835;SDS011;66719;51.226;6.902;2023-08-20T09:33:49;11.90;;;5.60;;
4835;SDS011;66719;51.226;6.902;2023-08-20T09:36:16;12.13;;;5.10;;
4835;SDS011;66719;51.226;6.902;2023-08-20T09:38:43;13.13;;;5.00;;
4835;SDS011;66719;51.226;6.902;2023-08-20T09:41:11;11.07;;;5.27;;
4835;SDS011;66719;51.226;6.902;2023-08-20T09:43:39;14.33;;;5.90;;
4835;SDS011;66719;51.226;6.902;2023-08-20T09:46:07;14.13;;;4.70;;
4835;SDS011;66719;51.226;6.902;2023-08-20T09:48:38;13.93;;;5.83;;
4835;SDS011;66719;51.226;6.902;2023-08-20T09:51:06;13.47;;;6.10;;
4835;SDS011;66719;51.226;6.902;2023-08-20T09:53:38;14.43;;;5.60;;
4835;SDS011;66719;51.226;6.902;2023-08-20T09:56:17;13.23;;;5.20;;
4835;SDS011;66719;51.226;6.902;2023-08-20T09:58:53;12.13;;;5.23;;
4835;SDS011;66719;51.226;6.902;2023-08-20T10:01:20;11.50;;;5.60;;
4835;SDS011;66719;51.226;6.902;2023-08-20T10:03:47;11.53;;;5.80;;
4835;SDS011;66719;51.226;6.902;2023-08-20T10:06:14;12.27;;;5.83;;
4835;SDS011;66719;51.226;6.902;2023-08-20T10:08:41;16.23;;;7.60;;
4835;SDS011;66719;51.226;6.902;2023-08-20T10:11:08;15.37;;;6.37;;
4835;SDS011;66719;51.226;6.902;2023-08-20T10:13:34;17.10;;;6.63;;
4835;SDS011;66719;51.226;6.902;2023-08-20T10:16:01;13.77;;;6.13;;
4835;SDS011;66719;51.226;6.902;2023-08-20T10:18:28;12.60;;;6.50;;
4835;SDS011;66719;51.226;6.902;2023-08-20T10:20:57;15.40;;;5.60;;
4835;SDS011;66719;51.226;6.902;2023-08-20T10:23:29;16.83;;;6.10;;
4835;SDS011;66719;51.226;6.902;2023-08-20T10:25:56;15.00;;;7.50;;
4835;SDS011;66719;51.226;6.902;2023-08-20T10:28:33;12.47;;;6.60;;
4835;SDS011;66719;51.226;6.902;2023-08-20T10:33:34;16.20;;;6.70;;
4835;SDS011;66719;51.226;6.902;2023-08-20T10:36:09;13.83;;;6.70;;
4835;SDS011;66719;51.226;6.902;2023-08-20T10:38:42;13.23;;;6.27;;
4835;SDS011;66719;51.226;6.902;2023-08-20T10:41:11;13.57;;;6.27;;
4835;SDS011;66719;51.226;6.902;2023-08-20T10:43:45;14.30;;;6.33;;
4835;SDS011;66719;51.226;6.902;2023-08-20T10:46:20;13.00;;;5.60;;
4835;SDS011;66719;51.226;6.902;2023-08-20T10:49:01;15.67;;;6.27;;
4835;SDS011;66719;51.226;6.902;2023-08-20T10:51:33;15.37;;;6.13;;
4835;SDS011;66719;51.226;6.902;2023-08-20T10:59:14;16.20;;;6.57;;
4835;SDS011;66719;51.226;6.902;2023-08-20T11:01:43;20.33;;;6.43;;
4835;SDS011;66719;51.226;6.902;2023-08-20T11:04:12;14.00;;;5.50;;
4835;SDS011;66719;51.226;6.902;2023-08-20T11:06:41;12.80;;;5.70;;
4835;SDS011;66719;51.226;6.902;2023-08-20T11:09:09;17.13;;;6.17;;
4835;SDS011;66719;51.226;6.902;2023-08-20T11:11:40;14.93;;;5.77;;
4835;SDS011;66719;51.226;6.902;2023-08-20T11:14:08;13.03;;;5.70;;
4835;SDS011;66719;51.226;6.902;2023-08-20T11:16:40;12.40;;;5.00;;
4835;SDS011;66719;51.226;6.902;2023-08-20T11:19:08;14.33;;;6.00;;
4835;SDS011;66719;51.226;6.902;2023-08-20T11:21:39;13.27;;;5.70;;
4835;SDS011;66719;51.226;6.902;2023-08-20T11:24:07;11.43;;;5.47;;
4835;SDS011;66719;51.226;6.902;2023-08-20T11:26:35;12.27;;;5.30;;
4835;SDS011;66719;51.226;6.902;2023-08-20T11:29:05;22.20;;;6.90;;
4835;SDS011;66719;51.226;6.902;2023-08-20T11:31:33;13.63;;;6.10;;
4835;SDS011;66719;51.226;6.902;2023-08-20T11:33:59;14.47;;;6.10;;
4835;SDS011;66719;51.226;6.902;2023-08-20T11:36:28;20.30;;;6.73;;
4835;SDS011;66719;51.226;6.902;2023-08-20T11:38:55;13.97;;;6.90;;
4835;SDS011;66719;51.226;6.902;2023-08-20T11:41:22;13.30;;;6.40;;
4835;SDS011;66719;51.226;6.902;2023-08-20T11:43:51;16.60;;;7.07;;
4835;SDS011;66719;51.226;6.902;2023-08-20T11:46:22;14.13;;;6.77;;
4835;SDS011;66719;51.226;6.902;2023-08-20T11:49:05;13.83;;;6.63;;
4835;SDS011;66719;51.226;6.902;2023-08-20T11:51:37;15.57;;;6.77;;
4835;SDS011;66719;51.226;6.902;2023-08-20T11:54:07;14.27;;;7.20;;
4835;SDS011;66719;51.226;6.902;2023-08-20T11:56:35;14.77;;;6.83;;
4835;SDS011;66719;51.226;6.902;2023-08-20T11:59:01;17.50;;;7.07;;
4835;SDS011;66719;51.226;6.902;2023-08-20T12:01:31;14.53;;;7.30;;
4835;SDS011;66719;51.226;6.902;2023-08-20T12:04:05;13.63;;;6.97;;
4835;SDS011;66719;51.226;6.902;2023-08-20T12:06:34;15.33;;;6.63;;
4835;SDS011;66719;51.226;6.902;2023-08-20T12:09:12;14.60;;;7.10;;
4835;SDS011;66719;51.226;6.902;2023-08-20T12:11:48;14.57;;;7.00;;
4835;SDS011;66719;51.226;6.902;2023-08-20T12:14:18;15.50;;;7.47;;
4835;SDS011;66719;51.226;6.902;2023-08-20T12:16:46;14.50;;;7.30;;
4835;SDS011;66719;51.226;6.902;2023-08-20T12:19:13;18.43;;;8.40;;
4835;SDS011;66719;51.226;6.902;2023-08-20T12:21:40;21.67;;;8.27;;
4835;SDS011;66719;51.226;6.902;2023-08-20T12:24:08;15.07;;;7.70;;
4835;SDS011;66719;51.226;6.902;2023-08-20T12:26:38;16.90;;;8.00;;
4835;SDS011;66719;51.226;6.902;2023-08-20T12:29:05;14.70;;;8.63;;
4835;SDS011;66719;51.226;6.902;2023-08-20T12:31:32;14.60;;;7.43;;
4835;SDS011;66719;51.226;6.902;2023-08-20T12:34:00;14.97;;;7.80;;
4835;SDS011;66719;51.226;6.902;2023-08-20T12:36:27;16.10;;;7.77;;
4835;SDS011;66719;51.226;6.902;2023-08-20T12:38:54;13.90;;;8.23;;
4835;SDS011;66719;51.226;6.902;2023-08-20T12:41:21;15.10;;;7.87;;
4835;SDS011;66719;51.226;6.902;2023-08-20T12:43:48;17.17;;;8.47;;
4835;SDS011;66719;51.226;6.902;2023-08-20T12:46:14;17.53;;;8.10;;
4835;SDS011;66719;51.226;6.902;2023-08-20T12:48:41;14.20;;;7.57;;
4835;SDS011;66719;51.226;6.902;2023-08-20T12:51:07;14.10;;;8.37;;
4835;SDS011;66719;51.226;6.902;2023-08-20T12:53:38;16.83;;;8.87;;
4835;SDS011;66719;51.226;6.902;2023-08-20T12:56:05;31.50;;;16.20;;
4835;SDS011;66719;51.226;6.902;2023-08-20T12:58:32;15.40;;;8.40;;
4835;SDS011;66719;51.226;6.902;2023-08-20T13:00:58;17.50;;;9.13;;
4835;SDS011;66719;51.226;6.902;2023-08-20T13:03:25;31.47;;;19.10;;
4835;SDS011;66719;51.226;6.902;2023-08-20T13:05:54;14.20;;;7.60;;
4835;SDS011;66719;51.226;6.902;2023-08-20T13:08:23;16.70;;;7.17;;
4835;SDS011;66719;51.226;6.902;2023-08-20T13:10:52;14.87;;;7.23;;
4835;SDS011;66719;51.226;6.902;2023-08-20T13:13:22;34.77;;;19.07;;
4835;SDS011;66719;51.226;6.902;2023-08-20T13:15:50;15.43;;;8.00;;
4835;SDS011;66719;51.226;6.902;2023-08-20T13:18:18;18.10;;;9.23;;
4835;SDS011;66719;51.226;6.902;2023-08-20T13:20:45;21.93;;;12.83;;
4835;SDS011;66719;51.226;6.902;2023-08-20T13:23:12;12.77;;;6.00;;
4835;SDS011;66719;51.226;6.902;2023-08-20T13:25:39;15.70;;;7.53;;
4835;SDS011;66719;51.226;6.902;2023-08-20T13:28:05;14.43;;;6.00;;
4835;SDS011;66719;51.226;6.902;2023-08-20T13:30:32;12.53;;;5.67;;
4835;SDS011;66719;51.226;6.902;2023-08-20T13:33:01;18.53;;;10.70;;
4835;SDS011;66719;51.226;6.902;2023-08-20T13:35:27;17.27;;;9.97;;
4835;SDS011;66719;51.226;6.902;2023-08-20T13:37:54;17.40;;;8.80;;
4835;SDS011;66719;51.226;6.902;2023-08-20T13:40:20;11.67;;;6.33;;
4835;SDS011;66719;51.226;6.902;2023-08-20T13:42:47;12.00;;;5.80;;
4835;SDS011;66719;51.226;6.902;2023-08-20T13:45:14;13.27;;;5.13;;
4835;SDS011;66719;51.226;6.902;2023-08-20T13:47:42;13.53;;;5.80;;
4835;SDS011;66719;51.226;6.902;2023-08-20T13:50:13;14.20;;;7.50;;
4835;SDS011;66719;51.226;6.902;2023-08-20T13:52:40;14.10;;;5.90;;
4835;SDS011;66719;51.226;6.902;2023-08-20T13:55:06;12.70;;;5.40;;
4835;SDS011;66719;51.226;6.902;2023-08-20T13:57:34;12.50;;;5.47;;
4835;SDS011;66719;51.226;6.902;2023-08-20T14:00:01;17.73;;;6.53;;
4835;SDS011;66719;51.226;6.902;2023-08-20T14:02:27;12.20;;;5.67;;
4835;SDS011;66719;51.226;6.902;2023-08-20T14:04:54;12.70;;;6.10;;
4835;SDS011;66719;51.226;6.902;2023-08-20T14:07:21;10.60;;;5.37;;
4835;SDS011;66719;51.226;6.902;2023-08-20T14:09:47;13.20;;;6.17;;
4835;SDS011;66719;51.226;6.902;2023-08-20T14:12:14;13.83;;;6.10;;
4835;SDS011;66719;51.226;6.902;2023-08-20T14:14:40;16.63;;;7.70;;
4835;SDS011;66719;51.226;6.902;2023-08-20T14:17:08;13.90;;;5.87;;
4835;SDS011;66719;51.226;6.902;2023-08-20T14:19:35;14.83;;;5.97;;
4835;SDS011;66719;51.226;6.902;2023-08-20T14:22:02;15.97;;;6.10;;
4835;SDS011;66719;51.226;6.902;2023-08-20T14:24:28;15.30;;;6.40;;
4835;SDS011;66719;51.226;6.902;2023-08-20T14:26:55;18.47;;;6.40;;
4835;SDS011;66719;51.226;6.902;2023-08-20T14:29:21;13.50;;;6.00;;
4835;SDS011;66719;51.226;6.902;2023-08-20T14:31:48;15.20;;;6.17;;
4835;SDS011;66719;51.226;6.902;2023-08-20T14:34:15;16.50;;;5.67;;
4835;SDS011;66719;51.226;6.902;2023-08-20T14:36:42;13.93;;;6.00;;
4835;SDS011;66719;51.226;6.902;2023-08-20T14:39:08;14.77;;;6.47;;
4835;SDS011;66719;51.226;6.902;2023-08-20T14:41:35;24.67;;;13.20;;
4835;SDS011;66719;51.226;6.902;2023-08-20T14:44:02;14.30;;;6.70;;
4835;SDS011;66719;51.226;6.902;2023-08-20T14:46:28;21.73;;;6.40;;
4835;SDS011;66719;51.226;6.902;2023-08-20T14:48:55;13.23;;;5.43;;
4835;SDS011;66719;51.226;6.902;2023-08-20T14:51:22;14.73;;;6.53;;
4835;SDS011;66719;51.226;6.902;2023-08-20T14:53:48;12.33;;;6.47;;
4835;SDS011;66719;51.226;6.902;2023-08-20T14:56:15;15.83;;;5.93;;
4835;SDS011;66719;51.226;6.902;2023-08-20T14:58:42;13.97;;;5.73;;
4835;SDS011;66719;51.226;6.902;2023-08-20T15:01:08;13.93;;;5.77;;